Time;durP1;ratioP1;P1;durP2;ratioP2;P2;SDS_P1;SDS_P2;PMS_P1;PMS_P2;Temp;Humidity;BMP_temperature;BMP_pressure;BME280_temperature;BME280_humidity;BME280_pressure;Samples;Min_cycle;Max_cycle;Signal;HPM_P1;HPM_P2
2021/06/20 00:01:38;;;;;;;12.45;6.03;;;17.00;99.90;;;;;;5072962;28;20365;-74
2021/06/20 00:04:03;;;;;;;11.55;6.45;;;16.90;99.90;;;;;;5072973;28;20060;-74
2021/06/20 00:06:32;;;;;;;10.80;6.53;;;16.90;99.90;;;;;;5073242;28;20029;-74
2021/06/20 00:08:58;;;;;;;;;;;17.00;99.90;;;;;;5055311;28;20020;-74
2021/06/20 00:11:26;;;;;;;13.15;7.00;;;17.00;99.90;;;;;;5076894;28;19905;-74
2021/06/20 00:13:52;;;;;;;14.65;6.78;;;17.00;99.90;;;;;;5077070;28;20025;-74
2021/06/20 00:16:18;;;;;;;12.32;6.65;;;17.00;99.90;;;;;;5077432;28;20021;-74
2021/06/20 00:18:45;;;;;;;13.45;7.13;;;17.00;99.90;;;;;;5076942;28;20020;-73
2021/06/20 00:21:10;;;;;;;11.68;6.57;;;17.00;99.90;;;;;;5077005;28;20495;-73
2021/06/20 00:23:36;;;;;;;11.60;6.28;;;17.00;99.90;;;;;;5076718;28;20048;-74
2021/06/20 00:26:02;;;;;;;12.90;7.13;;;17.00;99.90;;;;;;5077183;28;20032;-74
2021/06/20 00:28:28;;;;;;;12.60;6.82;;;17.00;99.90;;;;;;5076898;28;20100;-74
2021/06/20 00:30:54;;;;;;;14.32;6.72;;;17.00;99.90;;;;;;5076883;28;20095;-73
2021/06/20 00:33:19;;;;;;;14.52;7.07;;;17.00;99.90;;;;;;5076580;28;20111;-74
2021/06/20 00:35:45;;;;;;;11.48;6.25;;;17.00;99.90;;;;;;5077265;28;20066;-74
2021/06/20 00:38:10;;;;;;;11.25;6.90;;;16.90;99.90;;;;;;5059369;28;20047;-75
2021/06/20 00:40:36;;;;;;;16.83;7.20;;;16.90;99.90;;;;;;5076385;28;20419;-74
2021/06/20 00:43:02;;;;;;;14.90;7.55;;;16.90;99.90;;;;;;5076557;28;20024;-75
2021/06/20 00:45:27;;;;;;;14.90;7.20;;;17.00;99.90;;;;;;5076508;28;20064;-75
2021/06/20 00:47:55;;;;;;;14.55;7.25;;;17.00;99.90;;;;;;5058382;28;20112;-75
2021/06/20 00:50:22;;;;;;;14.23;7.03;;;16.90;99.90;;;;;;5076252;28;20078;-74
2021/06/20 00:52:48;;;;;;;16.52;8.00;;;17.00;99.90;;;;;;5076285;28;20103;-74
2021/06/20 00:55:14;;;;;;;19.25;7.90;;;17.00;99.90;;;;;;5076309;28;20025;-74
2021/06/20 00:57:41;;;;;;;15.70;7.57;;;17.00;99.90;;;;;;5076261;28;20496;-74
2021/06/20 01:00:09;;;;;;;12.05;6.78;;;17.00;99.90;;;;;;5076356;28;20397;-74
2021/06/20 01:02:35;;;;;;;16.80;7.40;;;17.00;99.90;;;;;;5076137;28;20032;-74
2021/06/20 01:05:02;;;;;;;12.93;7.20;;;17.00;99.90;;;;;;5058318;28;20028;-74
2021/06/20 01:07:27;;;;;;;17.15;7.65;;;17.00;99.90;;;;;;5076126;28;20025;-74
2021/06/20 01:09:53;;;;;;;14.80;7.15;;;17.00;99.90;;;;;;5076147;28;20025;-74
2021/06/20 01:12:21;;;;;;;13.30;7.50;;;17.00;99.90;;;;;;5058205;28;20060;-74
2021/06/20 01:14:47;;;;;;;12.60;7.80;;;17.00;99.90;;;;;;5075979;28;20040;-74
2021/06/20 01:17:15;;;;;;;11.15;7.22;;;17.10;99.90;;;;;;5057680;28;20013;-74
2021/06/20 01:19:41;;;;;;;12.45;6.78;;;17.10;99.90;;;;;;5058135;28;20032;-74
2021/06/20 01:22:30;;;;;;;13.80;6.68;;;17.10;99.90;;;;;;5074779;28;20031;-74
2021/06/20 01:25:10;;;;;;;15.30;6.95;;;17.10;99.90;;;;;;5075687;28;20021;-74
2021/06/20 01:27:50;;;;;;;13.48;6.72;;;17.10;99.90;;;;;;5075657;28;20070;-74
2021/06/20 01:30:34;;;;;;;10.90;6.32;;;17.10;99.90;;;;;;5075363;28;20512;-74
2021/06/20 01:33:02;;;;;;;11.15;6.53;;;17.10;99.90;;;;;;5057787;28;20028;-74
2021/06/20 01:35:28;;;;;;;12.70;7.73;;;17.10;99.90;;;;;;5075628;28;20018;-74
2021/06/20 01:37:54;;;;;;;14.32;6.88;;;17.10;99.90;;;;;;5057564;28;20821;-74
2021/06/20 01:40:22;;;;;;;13.15;6.28;;;17.10;99.90;;;;;;5075687;28;20070;-74
2021/06/20 01:42:48;;;;;;;12.35;7.22;;;17.10;99.90;;;;;;5057538;28;20370;-74
2021/06/20 01:45:18;;;;;;;17.40;7.17;;;17.20;99.90;;;;;;5090568;22;20033;31
2021/06/20 01:47:44;;;;;;;13.73;6.57;;;17.50;99.90;;;;;;5059509;28;20258;-86
2021/06/20 01:52:38;;;;;;;15.20;7.03;;;17.10;99.90;;;;;;5034668;28;20041;-78
2021/06/20 01:55:05;;;;;;;12.43;6.47;;;17.10;99.90;;;;;;5035864;28;20363;-77
2021/06/20 01:57:36;;;;;;;13.82;6.20;;;17.10;99.90;;;;;;5015783;28;20026;-78
2021/06/20 02:00:07;;;;;;;17.30;7.38;;;17.10;99.90;;;;;;5016274;28;20410;-78
2021/06/20 02:02:33;;;;;;;14.02;6.88;;;17.10;99.90;;;;;;5016202;28;20022;-78
2021/06/20 02:04:59;;;;;;;11.13;6.20;;;17.10;99.90;;;;;;5016379;28;20497;-78
2021/06/20 02:07:26;;;;;;;13.32;7.22;;;17.10;99.90;;;;;;5016099;28;20091;-78
2021/06/20 02:09:53;;;;;;;11.10;6.18;;;17.10;99.90;;;;;;4998564;28;20014;-78
2021/06/20 02:12:24;;;;;;;14.25;7.03;;;17.20;99.90;;;;;;5015839;28;20033;-77
2021/06/20 02:14:51;;;;;;;11.50;6.30;;;17.20;99.90;;;;;;4998435;28;20478;-78
2021/06/20 02:17:30;;;;;;;12.27;6.40;;;17.20;99.90;;;;;;5016136;28;20069;-78
2021/06/20 02:19:59;;;;;;;11.35;6.22;;;17.20;99.90;;;;;;5016164;28;20100;-78
2021/06/20 02:22:29;;;;;;;11.80;5.93;;;17.20;99.90;;;;;;5016277;28;20092;-78
2021/06/20 02:24:55;;;;;;;13.70;7.28;;;17.20;99.90;;;;;;5016249;28;20051;-78
2021/06/20 02:27:21;;;;;;;12.00;6.60;;;17.20;99.90;;;;;;5016337;28;20077;-78
2021/06/20 02:29:52;;;;;;;9.60;5.97;;;17.20;99.90;;;;;;4998296;28;20117;-78
2021/06/20 02:32:18;;;;;;;13.18;6.68;;;17.10;99.90;;;;;;5015811;28;20018;-77
2021/06/20 02:34:45;;;;;;;12.85;7.03;;;17.10;99.90;;;;;;5015288;28;20049;-78
2021/06/20 02:37:12;;;;;;;20.80;7.82;;;17.20;99.90;;;;;;4997544;28;20484;-76
2021/06/20 02:39:38;;;;;;;14.35;6.78;;;17.20;99.90;;;;;;5015314;28;20107;-77
2021/06/20 02:42:04;;;;;;;16.55;7.55;;;17.20;99.90;;;;;;4997556;28;20037;-78
2021/06/20 02:44:30;;;;;;;9.65;4.93;;;17.20;99.90;;;;;;4997799;28;20041;-78
2021/06/20 02:46:59;;;;;;;4.97;2.35;;;17.20;99.90;;;;;;4997481;28;20411;-78
2021/06/20 02:49:26;;;;;;;3.25;1.27;;;17.20;99.90;;;;;;5014910;28;20022;-77
2021/06/20 02:51:51;;;;;;;2.15;0.80;;;17.10;99.90;;;;;;4997281;28;20085;-77
2021/06/20 02:54:17;;;;;;;2.97;0.80;;;17.00;99.90;;;;;;4997347;28;20021;-77
2021/06/20 02:56:42;;;;;;;1.60;0.30;;;16.90;99.90;;;;;;4997182;28;20018;-77
2021/06/20 02:59:14;;;;;;;1.48;0.28;;;16.80;99.90;;;;;;5015317;28;20076;-76
2021/06/20 03:01:40;;;;;;;1.30;0.40;;;16.80;99.90;;;;;;5015316;28;20081;-78
2021/06/20 03:04:06;;;;;;;4.03;0.20;;;16.70;99.90;;;;;;4997471;28;20068;-77
2021/06/20 03:06:31;;;;;;;0.70;0.30;;;16.60;99.90;;;;;;5014978;28;20025;-78
2021/06/20 03:08:58;;;;;;;2.95;0.50;;;16.60;99.90;;;;;;5015109;28;20471;-78
2021/06/20 03:11:24;;;;;;;0.30;0.15;;;16.60;99.90;;;;;;5014652;28;20018;-78
2021/06/20 03:13:51;;;;;;;0.75;0.13;;;16.60;99.90;;;;;;5014708;28;20079;-78
2021/06/20 03:16:17;;;;;;;1.85;0.10;;;16.60;99.90;;;;;;4997200;28;20026;-78
2021/06/20 03:18:43;;;;;;;0.47;0.10;;;16.60;99.90;;;;;;5014926;28;20049;-78
2021/06/20 03:21:10;;;;;;;0.20;0.10;;;16.50;99.90;;;;;;4997033;28;20471;-77
2021/06/20 03:23:36;;;;;;;0.47;0.13;;;16.50;99.90;;;;;;5014388;28;20018;-78
2021/06/20 03:26:03;;;;;;;0.45;0.35;;;16.50;99.90;;;;;;5014435;28;20507;-77
2021/06/20 03:28:29;;;;;;;0.10;0.10;;;16.40;99.90;;;;;;4996683;28;20022;-77
2021/06/20 03:30:54;;;;;;;0.70;0.30;;;16.40;99.90;;;;;;5014738;28;20026;-77
2021/06/20 03:33:20;;;;;;;0.50;0.20;;;16.40;99.90;;;;;;5014837;28;20026;-78
2021/06/20 03:35:45;;;;;;;0.68;0.10;;;16.40;99.90;;;;;;5014670;28;20030;-78
2021/06/20 03:38:11;;;;;;;0.40;0.10;;;16.40;99.90;;;;;;4996871;28;20026;-77
2021/06/20 03:40:37;;;;;;;0.40;0.17;;;16.30;99.90;;;;;;5015333;28;20064;-78
2021/06/20 03:43:03;;;;;;;2.53;0.10;;;16.40;99.90;;;;;;5014627;28;20048;-77
2021/06/20 03:45:31;;;;;;;1.00;0.20;;;16.40;99.90;;;;;;5013529;28;20438;-77
2021/06/20 03:47:57;;;;;;;0.22;0.10;;;16.40;99.90;;;;;;4996480;28;20217;-78
2021/06/20 03:50:23;;;;;;;0.13;0.10;;;16.40;99.90;;;;;;4996418;28;20124;-77
2021/06/20 03:52:49;;;;;;;0.20;0.05;;;16.40;99.90;;;;;;4996909;28;20026;-77
2021/06/20 03:55:15;;;;;;;0.30;0.20;;;16.40;99.90;;;;;;5014045;28;20022;-77
2021/06/20 03:57:40;;;;;;;0.47;0.22;;;16.40;99.90;;;;;;5013472;28;20053;-77
2021/06/20 04:00:09;;;;;;;0.20;0.10;;;16.40;99.90;;;;;;4995954;28;20025;-76
2021/06/20 04:02:35;;;;;;;0.70;0.10;;;16.40;99.90;;;;;;5013388;28;20017;-76
2021/06/20 04:05:01;;;;;;;0.30;0.10;;;16.40;99.90;;;;;;5013634;28;20064;-77
2021/06/20 04:07:27;;;;;;;0.25;0.10;;;16.40;99.90;;;;;;5013364;28;20088;-76
2021/06/20 04:09:52;;;;;;;0.28;0.10;;;16.40;99.90;;;;;;5013441;28;20037;-76
2021/06/20 04:12:18;;;;;;;1.45;0.13;;;16.50;99.90;;;;;;5013304;28;20029;-77
2021/06/20 04:14:44;;;;;;;0.95;0.10;;;16.50;99.90;;;;;;5013680;28;20022;-76
2021/06/20 04:17:10;;;;;;;0.30;0.00;;;17.40;99.90;;;;;;5013561;28;20088;-76
2021/06/20 04:19:37;;;;;;;0.20;0.10;;;16.50;99.90;;;;;;5013289;28;20022;-76
2021/06/20 04:22:03;;;;;;;0.60;0.10;;;16.50;99.90;;;;;;5013309;28;20088;-76
2021/06/20 04:24:28;;;;;;;0.22;0.05;;;16.50;99.90;;;;;;5013243;28;20395;-76
2021/06/20 04:26:54;;;;;;;0.32;0.10;;;16.50;99.90;;;;;;5013260;28;20026;-76
2021/06/20 04:29:20;;;;;;;0.52;0.10;;;16.60;99.90;;;;;;5013068;28;20025;-77
2021/06/20 04:31:46;;;;;;;0.30;0.10;;;16.60;99.90;;;;;;5013212;28;20025;-76
2021/06/20 04:34:12;;;;;;;1.75;0.10;;;16.60;99.90;;;;;;5013475;28;20153;-77
2021/06/20 04:36:37;;;;;;;0.30;0.10;;;16.60;99.90;;;;;;5013432;28;20052;-77
2021/06/20 04:39:07;;;;;;;1.55;0.60;;;16.70;99.90;;;;;;5013058;28;20026;-77
2021/06/20 04:41:34;;;;;;;0.15;0.15;;;16.80;99.90;;;;;;5013090;28;20049;-77
2021/06/20 04:44:02;;;;;;;0.20;0.10;;;16.80;99.90;;;;;;5013161;28;20041;-77
2021/06/20 04:46:30;;;;;;;0.20;0.10;;;16.90;99.90;;;;;;5013186;28;20026;-77
2021/06/20 04:49:03;;;;;;;1.05;0.10;;;16.90;99.90;;;;;;5012865;28;20026;-77
2021/06/20 04:51:30;;;;;;;0.28;0.10;;;17.00;99.90;;;;;;5012973;28;20030;-77
2021/06/20 04:53:56;;;;;;;0.05;0.00;;;17.00;99.90;;;;;;5013344;28;20025;-77
2021/06/20 04:56:22;;;;;;;0.10;0.08;;;17.00;99.90;;;;;;4997109;28;20490;-76
2021/06/20 04:58:48;;;;;;;0.47;0.00;;;17.10;99.90;;;;;;4998987;28;20113;-77
2021/06/20 05:01:13;;;;;;;1.05;0.10;;;17.20;99.90;;;;;;5017097;28;20018;-77
2021/06/20 05:03:39;;;;;;;0.10;0.00;;;17.20;99.90;;;;;;4998982;28;20022;-77
2021/06/20 05:06:04;;;;;;;0.20;0.00;;;17.20;99.90;;;;;;5016814;28;20014;-76
2021/06/20 05:08:30;;;;;;;1.02;0.08;;;17.20;99.90;;;;;;5016571;28;20018;-76
2021/06/20 05:10:56;;;;;;;0.10;0.00;;;17.20;99.90;;;;;;5016469;28;20026;-76
2021/06/20 05:13:22;;;;;;;2.80;0.00;;;17.20;99.90;;;;;;5016452;28;20072;-76
2021/06/20 05:15:47;;;;;;;0.00;0.00;;;17.20;99.90;;;;;;5016257;28;20022;-76
2021/06/20 05:18:13;;;;;;;0.10;0.00;;;17.20;99.90;;;;;;5016807;28;20025;-76
2021/06/20 05:20:40;;;;;;;0.00;0.00;;;17.30;99.90;;;;;;5016259;28;20113;-76
2021/06/20 05:23:07;;;;;;;0.00;0.00;;;17.40;99.90;;;;;;5015697;28;20390;-75
2021/06/20 05:25:32;;;;;;;0.28;0.00;;;17.40;99.90;;;;;;5015820;28;20026;-76
2021/06/20 05:27:58;;;;;;;2.00;0.00;;;17.40;99.90;;;;;;5016382;28;20489;-76
2021/06/20 05:30:24;;;;;;;1.48;0.00;;;17.50;99.90;;;;;;4998393;28;20132;-76
2021/06/20 05:32:49;;;;;;;0.10;0.00;;;17.50;99.90;;;;;;5016061;28;20022;-76
2021/06/20 05:35:16;;;;;;;0.00;0.00;;;17.50;99.90;;;;;;4998725;28;20026;-76
2021/06/20 05:37:42;;;;;;;0.17;0.00;;;17.50;99.90;;;;;;4998235;28;20018;-76
2021/06/20 05:40:08;;;;;;;0.82;0.00;;;17.50;99.90;;;;;;5016175;28;20427;-76
2021/06/20 05:42:34;;;;;;;0.35;0.00;;;17.50;99.90;;;;;;5016066;28;20022;-76
2021/06/20 05:45:00;;;;;;;0.10;0.00;;;17.50;99.90;;;;;;5016172;28;20040;-76
2021/06/20 05:47:26;;;;;;;0.10;0.00;;;17.50;99.90;;;;;;5016185;28;20034;-75
2021/06/20 05:49:51;;;;;;;0.00;0.00;;;17.50;99.90;;;;;;5015660;28;20030;-76
2021/06/20 05:52:17;;;;;;;0.10;0.00;;;17.60;99.90;;;;;;4998018;28;20029;-77
2021/06/20 05:54:49;;;;;;;0.00;0.00;;;17.50;99.90;;;;;;4998477;28;20030;-76
2021/06/20 05:57:16;;;;;;;0.00;0.00;;;17.60;99.90;;;;;;5015734;28;20022;-76
2021/06/20 05:59:41;;;;;;;0.50;0.00;;;17.50;99.90;;;;;;5015539;28;20026;-75
2021/06/20 06:02:07;;;;;;;0.00;0.00;;;17.60;99.90;;;;;;5015446;28;20052;-76
2021/06/20 06:04:32;;;;;;;0.00;0.00;;;17.70;99.90;;;;;;4998000;28;20034;-76
2021/06/20 06:06:58;;;;;;;2.53;0.00;;;17.80;99.90;;;;;;4997561;28;20040;-75
2021/06/20 06:09:23;;;;;;;0.10;0.00;;;17.80;99.90;;;;;;5014796;28;20030;-76
2021/06/20 06:11:50;;;;;;;1.45;0.00;;;17.80;99.90;;;;;;4997751;28;20116;-76
2021/06/20 06:14:16;;;;;;;0.00;0.00;;;17.70;99.90;;;;;;5014932;28;20026;-75
2021/06/20 06:16:42;;;;;;;0.30;0.00;;;17.70;99.90;;;;;;5015187;28;20438;-75
2021/06/20 06:19:08;;;;;;;0.17;0.00;;;17.70;99.90;;;;;;5015207;28;20080;-76
2021/06/20 06:21:33;;;;;;;0.00;0.00;;;17.80;99.90;;;;;;5015453;28;20038;-76
2021/06/20 06:23:59;;;;;;;0.10;0.00;;;17.70;99.90;;;;;;5015587;28;20022;-76
2021/06/20 06:26:24;;;;;;;0.20;0.00;;;17.70;99.90;;;;;;5015285;28;20105;-76
2021/06/20 06:28:50;;;;;;;0.00;0.00;;;17.70;99.90;;;;;;5015375;28;20061;-75
2021/06/20 06:31:16;;;;;;;0.08;0.00;;;17.70;99.90;;;;;;4997445;28;20565;-75
2021/06/20 06:33:41;;;;;;;0.00;0.00;;;17.70;99.90;;;;;;5015807;28;20030;-75
2021/06/20 06:36:07;;;;;;;0.32;0.00;;;17.70;99.90;;;;;;4997284;28;20058;-75
2021/06/20 06:38:33;;;;;;;0.10;0.00;;;17.70;99.90;;;;;;5014751;28;20116;-75
2021/06/20 06:40:58;;;;;;;0.10;0.00;;;17.70;99.90;;;;;;5014792;28;20077;-78
2021/06/20 06:43:24;;;;;;;0.85;0.47;;;17.80;99.90;;;;;;5016082;28;20022;-77
2021/06/20 06:45:50;;;;;;;0.20;0.10;;;17.80;99.90;;;;;;5015059;28;20166;-77
2021/06/20 06:48:16;;;;;;;0.00;0.00;;;17.80;99.90;;;;;;5015319;28;20494;-78
2021/06/20 06:50:42;;;;;;;0.95;0.00;;;17.80;99.90;;;;;;4997712;28;20526;-78
2021/06/20 06:53:07;;;;;;;0.35;0.10;;;17.80;99.90;;;;;;4997866;28;20091;-78
2021/06/20 06:55:33;;;;;;;0.10;0.00;;;17.90;99.90;;;;;;4997806;28;20025;-78
2021/06/20 06:58:01;;;;;;;1.77;0.00;;;18.00;99.90;;;;;;5015544;28;20022;-78
2021/06/20 07:00:26;;;;;;;0.13;0.10;;;18.20;99.90;;;;;;4997903;28;20092;-77
2021/06/20 07:02:53;;;;;;;0.20;0.10;;;18.30;99.90;;;;;;4997557;28;20022;-78
2021/06/20 07:05:19;;;;;;;1.15;0.30;;;18.40;99.90;;;;;;5014996;28;20018;-78
2021/06/20 07:07:45;;;;;;;1.40;0.10;;;18.40;99.90;;;;;;4997418;28;20080;-78
2021/06/20 07:10:11;;;;;;;0.30;0.05;;;18.40;99.90;;;;;;5014503;28;20048;-78
2021/06/20 07:12:36;;;;;;;0.73;0.00;;;18.40;99.90;;;;;;5015234;28;20094;-78
2021/06/20 07:15:04;;;;;;;0.10;0.10;;;18.30;99.90;;;;;;5015256;28;20065;-78
2021/06/20 07:17:31;;;;;;;1.20;0.10;;;18.30;99.90;;;;;;4997257;28;20042;-77
2021/06/20 07:19:57;;;;;;;0.00;0.00;;;18.30;99.90;;;;;;5014033;28;20022;-78
2021/06/20 07:22:22;;;;;;;0.17;0.08;;;18.30;99.90;;;;;;5015033;28;20514;-78
2021/06/20 07:24:48;;;;;;;0.10;0.00;;;18.40;99.90;;;;;;5015327;28;20030;-77
2021/06/20 07:27:17;;;;;;;0.65;0.10;;;18.40;99.90;;;;;;4997049;28;20089;-78
2021/06/20 07:29:43;;;;;;;;;;;18.60;99.90;;;;;;5015192;28;20191;-78
2021/06/20 07:32:12;;;;;;;11.55;4.88;;;18.70;99.90;;;;;;5014652;28;20000;-78
2021/06/20 07:34:37;;;;;;;;;;;18.90;99.90;;;;;;5014841;28;20036;-78
2021/06/20 07:37:03;;;;;;;0.50;0.20;;;18.90;99.90;;;;;;5014931;28;19905;-78
2021/06/20 07:39:30;;;;;;;0.68;0.52;;;18.90;99.90;;;;;;5013410;28;20025;-77
2021/06/20 07:41:56;;;;;;;0.82;0.68;;;19.00;99.90;;;;;;5013200;28;20050;-74
2021/06/20 07:44:21;;;;;;;1.45;0.57;;;19.10;99.90;;;;;;5014195;28;20065;-75
2021/06/20 07:46:47;;;;;;;0.75;0.75;;;19.10;99.90;;;;;;5013622;28;20534;-73
2021/06/20 07:49:13;;;;;;;0.98;0.93;;;19.20;99.90;;;;;;5013747;28;20026;-76
2021/06/20 07:51:38;;;;;;;0.70;0.70;;;19.20;99.90;;;;;;5013615;28;20041;-75
2021/06/20 07:54:05;;;;;;;0.95;0.73;;;19.20;99.90;;;;;;5013499;28;20471;-73
2021/06/20 07:56:31;;;;;;;1.10;0.95;;;19.40;99.90;;;;;;5013914;28;20053;-76
2021/06/20 07:58:57;;;;;;;0.90;0.90;;;19.50;99.90;;;;;;4995997;28;20483;-77
2021/06/20 08:01:24;;;;;;;1.23;0.85;;;19.50;99.90;;;;;;5014031;28;20034;-76
2021/06/20 08:03:49;;;;;;;1.30;0.70;;;19.60;99.90;;;;;;5013507;28;20026;-76
2021/06/20 08:06:15;;;;;;;1.65;1.30;;;19.70;99.90;;;;;;5013516;28;20495;-77
2021/06/20 08:08:40;;;;;;;1.40;1.30;;;19.80;99.90;;;;;;5013968;28;20148;-77
2021/06/20 08:11:06;;;;;;;1.52;1.42;;;19.80;99.90;;;;;;5013832;28;20022;-76
2021/06/20 08:13:31;;;;;;;1.55;1.40;;;19.80;99.90;;;;;;5013377;28;20022;-77
2021/06/20 08:15:57;;;;;;;2.20;1.35;;;20.00;99.90;;;;;;4996582;28;20029;-77
2021/06/20 08:18:23;;;;;;;1.35;1.25;;;20.30;99.90;;;;;;4996224;28;20084;-77
2021/06/20 08:20:49;;;;;;;1.50;1.30;;;20.30;99.90;;;;;;4996118;28;20018;-77
2021/06/20 08:23:14;;;;;;;1.23;1.13;;;20.40;99.90;;;;;;5013649;28;20029;-77
2021/06/20 08:25:40;;;;;;;3.70;1.27;;;20.60;99.90;;;;;;5013817;28;20033;-77
2021/06/20 08:28:06;;;;;;;1.08;0.82;;;20.70;99.90;;;;;;4995925;28;20478;-77
2021/06/20 08:30:32;;;;;;;1.95;1.05;;;20.80;99.90;;;;;;5013742;28;20088;-77
2021/06/20 08:32:57;;;;;;;2.85;1.17;;;21.00;99.90;;;;;;5017323;28;20090;-77
2021/06/20 08:35:23;;;;;;;0.95;0.68;;;21.00;99.90;;;;;;5017606;28;20033;-77
2021/06/20 08:37:49;;;;;;;1.27;1.20;;;20.60;99.90;;;;;;4999511;28;20018;-77
2021/06/20 08:40:15;;;;;;;2.25;1.30;;;20.50;99.90;;;;;;5017065;28;20042;-76
2021/06/20 08:42:41;;;;;;;0.80;0.77;;;20.50;99.90;;;;;;4999445;28;20014;-76
2021/06/20 08:45:07;;;;;;;0.88;0.60;;;20.60;99.90;;;;;;5017036;28;20037;-77
2021/06/20 08:47:38;;;;;;;0.93;0.80;;;20.60;99.90;;;;;;5017292;28;20088;-77
2021/06/20 08:50:05;;;;;;;1.08;1.08;;;20.80;99.90;;;;;;4999199;28;20030;-77
2021/06/20 08:52:30;;;;;;;0.77;0.75;;;21.20;99.90;;;;;;5016737;28;20030;-77
2021/06/20 08:55:04;;;;;;;1.13;0.60;;;21.50;99.90;;;;;;5016726;28;20022;-76
2021/06/20 08:57:37;;;;;;;1.48;1.38;;;21.70;99.90;;;;;;4999229;28;20476;-77
2021/06/20 09:00:05;;;;;;;0.80;0.80;;;21.80;99.90;;;;;;5016946;28;20101;-77
2021/06/20 09:02:31;;;;;;;1.45;0.70;;;21.80;99.90;;;;;;5016614;28;20018;-77
2021/06/20 09:05:00;;;;;;;1.77;1.30;;;21.50;99.90;;;;;;4999009;28;20052;-76
2021/06/20 09:07:29;;;;;;;;;;;21.50;99.90;;;;;;5017313;28;20026;-77
2021/06/20 09:09:54;;;;;;;1.50;1.40;;;21.20;99.90;;;;;;4999008;28;19909;-77
2021/06/20 09:12:20;;;;;;;5.03;2.03;;;21.00;99.90;;;;;;5016950;28;20038;-74
2021/06/20 09:14:48;;;;;;;1.73;1.52;;;20.80;99.90;;;;;;5017151;28;20126;-77
2021/06/20 09:17:30;;;;;;;2.53;1.70;;;20.80;99.90;;;;;;4999773;28;20080;-76
2021/06/20 09:20:00;;;;;;;2.15;1.73;;;20.90;99.90;;;;;;5016447;28;20022;-77
2021/06/20 09:22:27;;;;;;;2.05;1.65;;;21.20;99.90;;;;;;5016774;28;20022;-77
2021/06/20 09:25:07;;;;;;;2.78;1.92;;;21.50;99.90;;;;;;5016304;28;20091;-77
2021/06/20 09:27:34;;;;;;;3.30;1.80;;;21.50;99.90;;;;;;5016109;28;20033;-76
2021/06/20 09:30:14;;;;;;;2.05;1.67;;;21.60;99.90;;;;;;5016206;28;20116;-77
2021/06/20 09:32:40;;;;;;;2.35;2.15;;;21.70;99.90;;;;;;4998727;28;20022;-77
2021/06/20 09:35:07;;;;;;;2.30;1.77;;;21.80;99.90;;;;;;5016047;28;20044;-77
2021/06/20 09:37:33;;;;;;;1.73;1.50;;;22.00;99.90;;;;;;5018418;28;20494;-80
2021/06/20 09:40:11;;;;;;;1.85;1.67;;;22.20;99.90;;;;;;5002090;28;20109;-81
2021/06/20 09:42:41;;;;;;;3.23;2.47;;;22.20;99.90;;;;;;5003178;28;20120;-79
2021/06/20 09:45:07;;;;;;;3.35;2.58;;;22.20;99.90;;;;;;5022496;28;20328;-79
2021/06/20 09:47:38;;;;;;;2.55;2.42;;;22.10;99.90;;;;;;5017847;28;20036;-75
2021/06/20 09:50:04;;;;;;;4.10;2.33;;;22.20;99.90;;;;;;5015400;28;20077;-74
2021/06/20 09:52:32;;;;;;;4.22;2.83;;;22.10;99.90;;;;;;5015351;28;20594;-75
2021/06/20 09:55:01;;;;;;;2.20;2.00;;;21.90;99.90;;;;;;5015553;28;20022;-75
2021/06/20 09:57:27;;;;;;;4.35;2.33;;;21.90;99.90;;;;;;5015787;28;20018;-75
2021/06/20 09:59:58;;;;;;;2.33;2.13;;;22.10;99.90;;;;;;5015460;28;20034;-75
2021/06/20 10:02:26;;;;;;;2.50;2.30;;;22.10;99.90;;;;;;5016009;28;20038;-74
2021/06/20 10:04:52;;;;;;;2.15;1.95;;;22.10;99.90;;;;;;4997824;28;20399;-74
2021/06/20 10:07:17;;;;;;;2.10;1.92;;;21.90;99.90;;;;;;5015236;28;20025;-75
2021/06/20 10:09:43;;;;;;;2.65;1.55;;;21.80;99.90;;;;;;5015091;28;20037;-75
2021/06/20 10:12:09;;;;;;;4.90;2.75;;;21.70;99.90;;;;;;5015173;28;20033;-75
2021/06/20 10:14:42;;;;;;;4.25;2.15;;;21.60;99.90;;;;;;5015636;28;20050;-74
2021/06/20 10:17:16;;;;;;;3.35;2.13;;;21.60;99.90;;;;;;5015905;28;20353;-74
2021/06/20 10:19:50;;;;;;;1.90;1.65;;;21.80;99.90;;;;;;5015152;28;20061;-74
2021/06/20 10:22:17;;;;;;;3.85;1.92;;;21.80;99.90;;;;;;5015677;28;20110;-74
2021/06/20 10:24:45;;;;;;;5.72;2.00;;;22.00;99.90;;;;;;5015361;28;20033;-74
2021/06/20 10:27:26;;;;;;;1.70;1.60;;;22.00;99.90;;;;;;5014932;28;20018;-74
2021/06/20 10:29:56;;;;;;;2.08;1.40;;;22.00;99.90;;;;;;4977893;28;20030;-74
2021/06/20 10:32:23;;;;;;;1.27;1.00;;;22.00;99.90;;;;;;4977974;28;20065;-75
2021/06/20 10:35:01;;;;;;;0.88;0.73;;;21.80;99.90;;;;;;4977913;28;20022;-74
2021/06/20 10:37:38;;;;;;;1.77;0.40;;;21.90;99.90;;;;;;4977872;28;20068;-75
2021/06/20 10:40:30;;;;;;;0.35;0.30;;;22.00;99.90;;;;;;4977449;28;20039;-75
2021/06/20 10:42:57;;;;;;;0.77;0.50;;;22.10;99.90;;;;;;4995557;28;20097;-77
2021/06/20 10:45:34;;;;;;;2.38;0.20;;;22.20;99.90;;;;;;4999294;28;20506;-77
2021/06/20 10:48:12;;;;;;;1.02;0.10;;;21.90;99.90;;;;;;5034665;28;20026;-77
2021/06/20 10:50:39;;;;;;;0.63;0.45;;;21.90;99.90;;;;;;5017009;28;20550;-77
2021/06/20 10:53:05;;;;;;;1.48;0.65;;;21.80;99.90;;;;;;5034914;28;20028;-77
2021/06/20 10:55:58;;;;;;;1.10;0.20;;;21.90;99.90;;;;;;5034905;28;20030;-78
2021/06/20 10:58:34;;;;;;;0.43;0.20;;;21.90;99.90;;;;;;5012136;28;20046;-77
2021/06/20 11:01:17;;;;;;;3.33;0.90;;;21.90;99.90;;;;;;5005478;28;20484;-77
2021/06/20 11:03:58;;;;;;;2.05;0.70;;;21.90;99.90;;;;;;4979201;28;20031;-78
2021/06/20 11:06:25;;;;;;;2.95;1.05;;;21.80;99.90;;;;;;4979071;28;20070;-77
2021/06/20 11:08:55;;;;;;;3.38;1.83;;;22.00;99.90;;;;;;4995577;28;20018;-77
2021/06/20 11:11:35;;;;;;;8.68;2.50;;;22.20;99.90;;;;;;5009943;28;20022;-78
2021/06/20 11:14:04;;;;;;;7.53;3.17;;;22.40;99.90;;;;;;5007737;28;20026;-77
2021/06/20 11:16:50;;;;;;;10.18;3.85;;;22.50;99.90;;;;;;5014011;28;20040;-77
2021/06/20 11:19:28;;;;;;;10.48;3.95;;;22.60;99.90;;;;;;4994982;28;20095;-77
2021/06/20 11:21:58;;;;;;;7.15;3.33;;;22.70;99.90;;;;;;5016055;28;20029;-78
2021/06/20 11:24:28;;;;;;;11.50;5.90;;;22.90;99.90;;;;;;5016809;28;20025;-78
2021/06/20 11:27:00;;;;;;;11.35;4.93;;;23.10;99.90;;;;;;5014937;28;20104;-77
2021/06/20 11:29:43;;;;;;;11.07;4.60;;;23.20;99.90;;;;;;5014344;28;20037;-78
2021/06/20 11:32:26;;;;;;;15.98;4.13;;;23.20;99.90;;;;;;5015603;28;20486;-78
2021/06/20 11:35:08;;;;;;;10.95;3.17;;;23.00;99.90;;;;;;4997555;28;20033;-78
2021/06/20 11:37:37;;;;;;;3.30;1.05;;;22.80;99.90;;;;;;5022928;28;20475;-78
2021/06/20 11:40:05;;;;;;;2.83;0.30;;;22.80;99.90;;;;;;5015412;28;20034;-78
2021/06/20 11:42:31;;;;;;;2.85;0.20;;;22.70;99.90;;;;;;4998565;28;20117;-79
2021/06/20 11:45:05;;;;;;;0.98;0.28;;;22.70;99.90;;;;;;5016511;28;20037;-78
2021/06/20 11:47:32;;;;;;;2.28;0.45;;;22.80;99.90;;;;;;5016132;28;20442;-78
2021/06/20 11:50:15;;;;;;;4.50;0.30;;;22.90;99.90;;;;;;5016437;28;20065;-78
2021/06/20 11:52:43;;;;;;;2.08;0.00;;;23.20;99.90;;;;;;5016858;28;20116;-78
2021/06/20 11:55:17;;;;;;;0.40;0.00;;;23.70;99.90;;;;;;4998969;28;20022;-78
2021/06/20 11:57:44;;;;;;;0.95;0.00;;;24.40;99.90;;;;;;5010487;28;20029;-78
2021/06/20 12:00:18;;;;;;;1.50;0.00;;;24.80;99.90;;;;;;5003020;28;20040;-78
2021/06/20 12:02:45;;;;;;;1.10;0.00;;;25.20;99.90;;;;;;5009377;28;20045;-78
2021/06/20 12:05:16;;;;;;;0.63;0.00;;;25.70;99.90;;;;;;5014133;28;20045;-78
2021/06/20 12:07:43;;;;;;;0.57;0.00;;;26.00;99.90;;;;;;5014974;28;20029;-78
2021/06/20 12:10:12;;;;;;;1.23;0.10;;;26.50;99.90;;;;;;4997244;28;20037;-78
2021/06/20 12:12:39;;;;;;;1.70;0.05;;;26.50;98.00;;;;;;5014261;28;20026;-77
2021/06/20 12:15:06;;;;;;;1.10;0.20;;;26.80;99.90;;;;;;4986323;28;20046;-77
2021/06/20 12:17:31;;;;;;;0.63;0.10;;;27.10;98.10;;;;;;5013863;28;20026;-77
2021/06/20 12:19:57;;;;;;;4.50;0.20;;;27.20;95.70;;;;;;5013781;28;20491;-78
2021/06/20 12:22:23;;;;;;;1.05;0.15;;;26.80;94.50;;;;;;5014753;28;20105;-78
2021/06/20 12:25:03;;;;;;;2.63;0.10;;;26.80;95.20;;;;;;5014486;28;20503;-77
2021/06/20 12:27:37;;;;;;;1.27;0.17;;;26.60;95.10;;;;;;5014598;28;20111;-77
2021/06/20 12:30:22;;;;;;;0.40;0.00;;;26.30;96.00;;;;;;4994875;28;20057;-77
2021/06/20 12:32:50;;;;;;;0.13;0.03;;;26.50;96.40;;;;;;4994756;28;20019;-77
2021/06/20 12:35:33;;;;;;;1.30;0.00;;;27.00;94.90;;;;;;5008524;28;20084;-78
2021/06/20 12:37:59;;;;;;;1.10;0.05;;;26.80;93.30;;;;;;5013893;28;20021;-77
2021/06/20 12:40:31;;;;;;;3.28;0.30;;;26.50;92.80;;;;;;4995796;28;20503;-76
2021/06/20 12:42:58;;;;;;;1.40;0.00;;;26.30;92.70;;;;;;5012888;28;20033;-76
2021/06/20 12:45:30;;;;;;;0.98;0.17;;;26.40;91.80;;;;;;4993750;28;20106;-75
2021/06/20 12:47:57;;;;;;;3.13;0.10;;;26.50;93.80;;;;;;4994691;28;20109;-76
2021/06/20 12:50:28;;;;;;;0.60;0.03;;;26.80;93.60;;;;;;5009789;28;20022;-76
2021/06/20 12:52:54;;;;;;;1.77;0.00;;;26.70;92.90;;;;;;4993472;28;20488;-75